sensor_id;sensor_type;location;lat;lon;timestamp;temperature;humidity
28773;DHT22;15925;51.222;5.678;2022-11-20T00:00:53;3.90;99.90
28773;DHT22;15925;51.222;5.678;2022-11-20T00:03:19;3.90;99.90
28773;DHT22;15925;51.222;5.678;2022-11-20T00:05:45;3.90;99.90
28773;DHT22;15925;51.222;5.678;2022-11-20T00:08:11;4.00;99.90
28773;DHT22;15925;51.222;5.678;2022-11-20T00:10:38;4.00;99.90
28773;DHT22;15925;51.222;5.678;2022-11-20T00:13:04;4.10;99.90
28773;DHT22;15925;51.222;5.678;2022-11-20T00:15:30;4.00;99.90
28773;DHT22;15925;51.222;5.678;2022-11-20T00:17:56;4.00;99.90
28773;DHT22;15925;51.222;5.678;2022-11-20T00:20:22;4.10;99.90
28773;DHT22;15925;51.222;5.678;2022-11-20T00:22:49;4.00;99.90
28773;DHT22;15925;51.222;5.678;2022-11-20T00:25:15;3.80;99.90
28773;DHT22;15925;51.222;5.678;2022-11-20T00:27:40;3.90;99.90
28773;DHT22;15925;51.222;5.678;2022-11-20T00:30:10;4.00;99.90
28773;DHT22;15925;51.222;5.678;2022-11-20T00:32:36;4.00;99.90
28773;DHT22;15925;51.222;5.678;2022-11-20T00:35:01;3.90;99.90
28773;DHT22;15925;51.222;5.678;2022-11-20T00:37:27;4.10;99.90
28773;DHT22;15925;51.222;5.678;2022-11-20T00:39:53;4.00;99.90
28773;DHT22;15925;51.222;5.678;2022-11-20T00:42:18;4.10;99.90
28773;DHT22;15925;51.222;5.678;2022-11-20T00:44:44;4.20;99.90
28773;DHT22;15925;51.222;5.678;2022-11-20T00:47:10;4.10;99.90
28773;DHT22;15925;51.222;5.678;2022-11-20T00:49:36;4.20;99.90
28773;DHT22;15925;51.222;5.678;2022-11-20T00:52:01;4.10;99.90
28773;DHT22;15925;51.222;5.678;2022-11-20T00:54:28;4.20;99.90
28773;DHT22;15925;51.222;5.678;2022-11-20T00:56:53;4.30;99.90
28773;DHT22;15925;51.222;5.678;2022-11-20T00:59:19;4.30;99.90
28773;DHT22;15925;51.222;5.678;2022-11-20T01:01:45;4.20;99.90
28773;DHT22;15925;51.222;5.678;2022-11-20T01:04:11;4.10;99.90
28773;DHT22;15925;51.222;5.678;2022-11-20T01:06:38;4.10;99.90
28773;DHT22;15925;51.222;5.678;2022-11-20T01:09:07;4.20;99.90
28773;DHT22;15925;51.222;5.678;2022-11-20T01:11:35;4.00;99.90
28773;DHT22;15925;51.222;5.678;2022-11-20T01:14:03;4.20;99.90
28773;DHT22;15925;51.222;5.678;2022-11-20T01:16:35;4.20;99.90
28773;DHT22;15925;51.222;5.678;2022-11-20T01:19:04;4.30;99.90
28773;DHT22;15925;51.222;5.678;2022-11-20T01:21:36;4.30;99.90
28773;DHT22;15925;51.222;5.678;2022-11-20T01:24:04;4.30;99.90
28773;DHT22;15925;51.222;5.678;2022-11-20T01:26:32;4.20;99.90
28773;DHT22;15925;51.222;5.678;2022-11-20T01:28:59;4.20;99.90
28773;DHT22;15925;51.222;5.678;2022-11-20T01:31:31;4.20;99.90
28773;DHT22;15925;51.222;5.678;2022-11-20T01:34:00;4.20;99.90
28773;DHT22;15925;51.222;5.678;2022-11-20T01:36:28;4.00;99.90
28773;DHT22;15925;51.222;5.678;2022-11-20T01:38:55;4.00;99.90
28773;DHT22;15925;51.222;5.678;2022-11-20T01:41:22;4.00;99.90
28773;DHT22;15925;51.222;5.678;2022-11-20T01:44:08;4.00;99.90
28773;DHT22;15925;51.222;5.678;2022-11-20T01:46:37;4.00;99.90
28773;DHT22;15925;51.222;5.678;2022-11-20T01:49:31;3.90;99.90
28773;DHT22;15925;51.222;5.678;2022-11-20T01:52:07;3.90;99.90
28773;DHT22;15925;51.222;5.678;2022-11-20T01:54:42;3.80;99.90
28773;DHT22;15925;51.222;5.678;2022-11-20T01:57:10;3.80;99.90
28773;DHT22;15925;51.222;5.678;2022-11-20T01:59:52;3.80;99.90
28773;DHT22;15925;51.222;5.678;2022-11-20T02:02:19;3.80;99.90
28773;DHT22;15925;51.222;5.678;2022-11-20T02:04:46;3.70;99.90
28773;DHT22;15925;51.222;5.678;2022-11-20T02:07:13;3.70;99.90
28773;DHT22;15925;51.222;5.678;2022-11-20T02:09:39;3.50;99.90
28773;DHT22;15925;51.222;5.678;2022-11-20T02:12:05;3.50;99.90
28773;DHT22;15925;51.222;5.678;2022-11-20T02:14:51;3.40;99.90
28773;DHT22;15925;51.222;5.678;2022-11-20T02:17:17;3.30;99.90
28773;DHT22;15925;51.222;5.678;2022-11-20T02:19:42;3.40;99.90
28773;DHT22;15925;51.222;5.678;2022-11-20T02:22:17;3.20;99.90
28773;DHT22;15925;51.222;5.678;2022-11-20T02:24:47;3.20;99.90
28773;DHT22;15925;51.222;5.678;2022-11-20T02:27:15;3.30;99.90
28773;DHT22;15925;51.222;5.678;2022-11-20T02:29:51;3.30;99.90
28773;DHT22;15925;51.222;5.678;2022-11-20T02:32:19;3.40;99.90
28773;DHT22;15925;51.222;5.678;2022-11-20T02:34:45;3.40;99.90
28773;DHT22;15925;51.222;5.678;2022-11-20T02:37:11;3.40;99.90
28773;DHT22;15925;51.222;5.678;2022-11-20T02:39:37;3.50;99.90
28773;DHT22;15925;51.222;5.678;2022-11-20T02:42:03;3.50;99.90
28773;DHT22;15925;51.222;5.678;2022-11-20T02:44:29;3.40;99.90
28773;DHT22;15925;51.222;5.678;2022-11-20T02:46:57;3.40;99.90
28773;DHT22;15925;51.222;5.678;2022-11-20T02:49:24;3.40;99.90
28773;DHT22;15925;51.222;5.678;2022-11-20T02:51:49;3.40;99.90
28773;DHT22;15925;51.222;5.678;2022-11-20T02:54:15;3.50;99.90
28773;DHT22;15925;51.222;5.678;2022-11-20T02:56:41;3.50;99.90
28773;DHT22;15925;51.222;5.678;2022-11-20T02:59:07;3.60;99.90
28773;DHT22;15925;51.222;5.678;2022-11-20T03:01:33;3.50;99.90
28773;DHT22;15925;51.222;5.678;2022-11-20T03:03:59;3.50;99.90
28773;DHT22;15925;51.222;5.678;2022-11-20T03:06:25;3.50;99.90
28773;DHT22;15925;51.222;5.678;2022-11-20T03:08:50;3.40;99.90
28773;DHT22;15925;51.222;5.678;2022-11-20T03:11:16;3.30;99.90
28773;DHT22;15925;51.222;5.678;2022-11-20T03:13:42;3.40;99.90
28773;DHT22;15925;51.222;5.678;2022-11-20T03:16:11;3.50;99.90
28773;DHT22;15925;51.222;5.678;2022-11-20T03:18:38;3.50;99.90
28773;DHT22;15925;51.222;5.678;2022-11-20T03:21:04;3.40;99.90
28773;DHT22;15925;51.222;5.678;2022-11-20T03:23:31;3.30;99.90
28773;DHT22;15925;51.222;5.678;2022-11-20T03:26:28;3.40;99.90
28773;DHT22;15925;51.222;5.678;2022-11-20T03:28:58;3.50;99.90
28773;DHT22;15925;51.222;5.678;2022-11-20T03:31:29;3.40;99.90
28773;DHT22;15925;51.222;5.678;2022-11-20T03:33:56;3.50;99.90
28773;DHT22;15925;51.222;5.678;2022-11-20T03:36:23;3.50;99.90
28773;DHT22;15925;51.222;5.678;2022-11-20T03:38:49;3.60;99.90
28773;DHT22;15925;51.222;5.678;2022-11-20T03:41:24;3.60;99.90
28773;DHT22;15925;51.222;5.678;2022-11-20T03:44:10;3.70;99.90
28773;DHT22;15925;51.222;5.678;2022-11-20T03:46:36;3.70;99.90
28773;DHT22;15925;51.222;5.678;2022-11-20T03:49:03;3.50;99.90
28773;DHT22;15925;51.222;5.678;2022-11-20T03:51:31;3.60;99.90
28773;DHT22;15925;51.222;5.678;2022-11-20T03:53:59;3.60;99.90
28773;DHT22;15925;51.222;5.678;2022-11-20T03:56:30;3.50;99.90
28773;DHT22;15925;51.222;5.678;2022-11-20T03:58:57;3.60;99.90
28773;DHT22;15925;51.222;5.678;2022-11-20T04:01:26;3.60;99.90
28773;DHT22;15925;51.222;5.678;2022-11-20T04:03:53;3.60;99.90
28773;DHT22;15925;51.222;5.678;2022-11-20T04:06:25;3.70;99.90
28773;DHT22;15925;51.222;5.678;2022-11-20T04:08:54;3.50;99.90
28773;DHT22;15925;51.222;5.678;2022-11-20T04:11:23;3.60;99.90
28773;DHT22;15925;51.222;5.678;2022-11-20T04:13:57;3.60;99.90
28773;DHT22;15925;51.222;5.678;2022-11-20T04:16:24;3.60;99.90
28773;DHT22;15925;51.222;5.678;2022-11-20T04:18:55;3.60;99.90
28773;DHT22;15925;51.222;5.678;2022-11-20T04:21:22;3.40;99.90
28773;DHT22;15925;51.222;5.678;2022-11-20T04:23:49;3.50;99.90
28773;DHT22;15925;51.222;5.678;2022-11-20T04:26:15;3.60;99.90
28773;DHT22;15925;51.222;5.678;2022-11-20T04:28:41;3.50;99.90
28773;DHT22;15925;51.222;5.678;2022-11-20T04:31:12;3.60;99.90
28773;DHT22;15925;51.222;5.678;2022-11-20T04:33:39;3.60;99.90
28773;DHT22;15925;51.222;5.678;2022-11-20T04:36:12;3.70;99.90
28773;DHT22;15925;51.222;5.678;2022-11-20T04:38:38;3.60;99.90
28773;DHT22;15925;51.222;5.678;2022-11-20T04:41:07;3.70;99.90
28773;DHT22;15925;51.222;5.678;2022-11-20T04:43:33;3.60;99.90
28773;DHT22;15925;51.222;5.678;2022-11-20T04:46:00;3.50;99.90
28773;DHT22;15925;51.222;5.678;2022-11-20T04:48:26;3.40;99.90
28773;DHT22;15925;51.222;5.678;2022-11-20T04:50:52;3.50;99.90
28773;DHT22;15925;51.222;5.678;2022-11-20T04:53:19;3.60;99.90
28773;DHT22;15925;51.222;5.678;2022-11-20T04:55:45;3.50;99.90
28773;DHT22;15925;51.222;5.678;2022-11-20T04:58:12;3.60;99.90
28773;DHT22;15925;51.222;5.678;2022-11-20T05:00:38;3.70;99.90
28773;DHT22;15925;51.222;5.678;2022-11-20T05:03:04;3.70;99.90
28773;DHT22;15925;51.222;5.678;2022-11-20T05:05:30;3.70;99.90
28773;DHT22;15925;51.222;5.678;2022-11-20T05:07:56;3.70;99.90
28773;DHT22;15925;51.222;5.678;2022-11-20T05:10:27;3.70;99.90
28773;DHT22;15925;51.222;5.678;2022-11-20T05:12:52;3.70;99.90
28773;DHT22;15925;51.222;5.678;2022-11-20T05:15:19;3.70;99.90
28773;DHT22;15925;51.222;5.678;2022-11-20T05:17:48;3.80;99.90
28773;DHT22;15925;51.222;5.678;2022-11-20T05:20:14;3.80;99.90
28773;DHT22;15925;51.222;5.678;2022-11-20T05:22:40;3.80;99.90
28773;DHT22;15925;51.222;5.678;2022-11-20T05:25:06;3.80;99.90
28773;DHT22;15925;51.222;5.678;2022-11-20T05:27:32;3.80;99.90
28773;DHT22;15925;51.222;5.678;2022-11-20T05:29:58;3.80;99.90
28773;DHT22;15925;51.222;5.678;2022-11-20T05:32:24;3.80;99.90
28773;DHT22;15925;51.222;5.678;2022-11-20T05:34:51;3.90;99.90
28773;DHT22;15925;51.222;5.678;2022-11-20T05:37:17;3.90;99.90
28773;DHT22;15925;51.222;5.678;2022-11-20T05:39:42;3.90;99.90
28773;DHT22;15925;51.222;5.678;2022-11-20T05:42:08;3.90;99.90
28773;DHT22;15925;51.222;5.678;2022-11-20T05:44:52;3.90;99.90
28773;DHT22;15925;51.222;5.678;2022-11-20T05:47:18;3.90;99.90
28773;DHT22;15925;51.222;5.678;2022-11-20T05:49:44;3.90;99.90
28773;DHT22;15925;51.222;5.678;2022-11-20T05:52:10;3.90;99.90
28773;DHT22;15925;51.222;5.678;2022-11-20T05:54:36;3.90;99.90
28773;DHT22;15925;51.222;5.678;2022-11-20T05:57:01;3.90;99.90
28773;DHT22;15925;51.222;5.678;2022-11-20T05:59:27;3.80;99.90
28773;DHT22;15925;51.222;5.678;2022-11-20T06:01:53;3.90;99.90
28773;DHT22;15925;51.222;5.678;2022-11-20T06:04:19;3.90;99.90
28773;DHT22;15925;51.222;5.678;2022-11-20T06:06:44;4.00;99.90
28773;DHT22;15925;51.222;5.678;2022-11-20T06:09:10;4.00;99.90
28773;DHT22;15925;51.222;5.678;2022-11-20T06:11:36;4.00;99.90
28773;DHT22;15925;51.222;5.678;2022-11-20T06:14:02;4.00;99.90
28773;DHT22;15925;51.222;5.678;2022-11-20T06:16:27;4.00;99.90
28773;DHT22;15925;51.222;5.678;2022-11-20T06:18:53;4.00;99.90
28773;DHT22;15925;51.222;5.678;2022-11-20T06:21:20;4.00;99.90
28773;DHT22;15925;51.222;5.678;2022-11-20T06:23:47;4.00;99.90
28773;DHT22;15925;51.222;5.678;2022-11-20T06:26:32;4.00;99.90
28773;DHT22;15925;51.222;5.678;2022-11-20T06:28:58;4.00;99.90
28773;DHT22;15925;51.222;5.678;2022-11-20T06:31:24;4.10;99.90
28773;DHT22;15925;51.222;5.678;2022-11-20T06:33:51;4.10;99.90
28773;DHT22;15925;51.222;5.678;2022-11-20T06:36:19;4.10;99.90
28773;DHT22;15925;51.222;5.678;2022-11-20T06:38:45;4.10;99.90
28773;DHT22;15925;51.222;5.678;2022-11-20T06:41:17;4.10;99.90
28773;DHT22;15925;51.222;5.678;2022-11-20T06:43:43;4.20;99.90
28773;DHT22;15925;51.222;5.678;2022-11-20T06:46:11;4.20;99.90
28773;DHT22;15925;51.222;5.678;2022-11-20T06:48:36;4.20;99.90
28773;DHT22;15925;51.222;5.678;2022-11-20T06:51:04;4.10;99.90
28773;DHT22;15925;51.222;5.678;2022-11-20T06:53:30;4.20;99.90
28773;DHT22;15925;51.222;5.678;2022-11-20T06:55:56;4.20;99.90
28773;DHT22;15925;51.222;5.678;2022-11-20T06:58:29;4.30;99.90
28773;DHT22;15925;51.222;5.678;2022-11-20T07:01:05;4.20;99.90
28773;DHT22;15925;51.222;5.678;2022-11-20T07:03:32;4.20;99.90
28773;DHT22;15925;51.222;5.678;2022-11-20T07:05:58;4.10;99.90
28773;DHT22;15925;51.222;5.678;2022-11-20T07:08:25;4.30;99.90
28773;DHT22;15925;51.222;5.678;2022-11-20T07:10:51;4.30;99.90
28773;DHT22;15925;51.222;5.678;2022-11-20T07:13:17;4.30;99.90
28773;DHT22;15925;51.222;5.678;2022-11-20T07:15:43;4.30;99.90
28773;DHT22;15925;51.222;5.678;2022-11-20T07:18:09;4.20;99.90
28773;DHT22;15925;51.222;5.678;2022-11-20T07:20:34;4.30;99.90
28773;DHT22;15925;51.222;5.678;2022-11-20T07:23:00;4.30;99.90
28773;DHT22;15925;51.222;5.678;2022-11-20T07:25:27;4.40;99.90
28773;DHT22;15925;51.222;5.678;2022-11-20T07:28:00;4.30;99.90
28773;DHT22;15925;51.222;5.678;2022-11-20T07:30:27;4.40;99.90
28773;DHT22;15925;51.222;5.678;2022-11-20T07:32:54;4.40;99.90
28773;DHT22;15925;51.222;5.678;2022-11-20T07:35:21;4.30;99.90
28773;DHT22;15925;51.222;5.678;2022-11-20T07:37:47;4.20;99.90
28773;DHT22;15925;51.222;5.678;2022-11-20T07:40:14;4.20;99.90
28773;DHT22;15925;51.222;5.678;2022-11-20T07:42:50;4.30;99.90
28773;DHT22;15925;51.222;5.678;2022-11-20T07:45:17;4.30;99.90
28773;DHT22;15925;51.222;5.678;2022-11-20T07:47:43;4.30;99.90
28773;DHT22;15925;51.222;5.678;2022-11-20T07:50:09;4.20;99.90
28773;DHT22;15925;51.222;5.678;2022-11-20T07:52:35;4.20;99.90
28773;DHT22;15925;51.222;5.678;2022-11-20T07:55:00;4.30;99.90
28773;DHT22;15925;51.222;5.678;2022-11-20T07:57:26;4.40;99.90
28773;DHT22;15925;51.222;5.678;2022-11-20T07:59:52;4.30;99.90
28773;DHT22;15925;51.222;5.678;2022-11-20T08:02:17;4.30;99.90
28773;DHT22;15925;51.222;5.678;2022-11-20T08:04:43;4.40;99.90
28773;DHT22;15925;51.222;5.678;2022-11-20T08:07:09;4.30;99.90
28773;DHT22;15925;51.222;5.678;2022-11-20T08:09:35;4.40;99.90
28773;DHT22;15925;51.222;5.678;2022-11-20T08:12:00;4.40;99.90
28773;DHT22;15925;51.222;5.678;2022-11-20T08:14:45;4.50;99.90
28773;DHT22;15925;51.222;5.678;2022-11-20T08:17:12;4.50;99.90
28773;DHT22;15925;51.222;5.678;2022-11-20T08:19:38;4.60;99.90
28773;DHT22;15925;51.222;5.678;2022-11-20T08:22:04;4.60;99.90
28773;DHT22;15925;51.222;5.678;2022-11-20T08:24:30;4.60;99.90
28773;DHT22;15925;51.222;5.678;2022-11-20T08:26:58;4.60;99.90
28773;DHT22;15925;51.222;5.678;2022-11-20T08:29:27;4.60;99.90
28773;DHT22;15925;51.222;5.678;2022-11-20T08:31:53;4.70;99.90
28773;DHT22;15925;51.222;5.678;2022-11-20T08:34:18;4.70;99.90
28773;DHT22;15925;51.222;5.678;2022-11-20T08:36:44;4.80;99.90
28773;DHT22;15925;51.222;5.678;2022-11-20T08:39:13;4.80;99.90
28773;DHT22;15925;51.222;5.678;2022-11-20T08:41:39;4.70;99.90
28773;DHT22;15925;51.222;5.678;2022-11-20T08:44:06;4.80;99.90
28773;DHT22;15925;51.222;5.678;2022-11-20T08:46:42;4.80;99.90
28773;DHT22;15925;51.222;5.678;2022-11-20T08:49:10;4.80;99.90
28773;DHT22;15925;51.222;5.678;2022-11-20T08:51:37;4.80;99.90
28773;DHT22;15925;51.222;5.678;2022-11-20T08:54:03;4.80;99.90
28773;DHT22;15925;51.222;5.678;2022-11-20T08:56:29;4.80;99.90
28773;DHT22;15925;51.222;5.678;2022-11-20T08:58:55;4.80;99.90
28773;DHT22;15925;51.222;5.678;2022-11-20T09:01:22;4.80;99.90
28773;DHT22;15925;51.222;5.678;2022-11-20T09:03:49;4.80;99.90
28773;DHT22;15925;51.222;5.678;2022-11-20T09:06:15;4.80;99.90
28773;DHT22;15925;51.222;5.678;2022-11-20T09:08:41;4.90;99.90
28773;DHT22;15925;51.222;5.678;2022-11-20T09:11:07;4.90;99.90
28773;DHT22;15925;51.222;5.678;2022-11-20T09:13:34;4.90;99.90
28773;DHT22;15925;51.222;5.678;2022-11-20T09:16:03;5.00;99.90
28773;DHT22;15925;51.222;5.678;2022-11-20T09:18:31;5.00;99.90
28773;DHT22;15925;51.222;5.678;2022-11-20T09:21:03;5.00;99.90
28773;DHT22;15925;51.222;5.678;2022-11-20T09:23:34;5.00;99.90
28773;DHT22;15925;51.222;5.678;2022-11-20T09:26:05;5.10;99.90
28773;DHT22;15925;51.222;5.678;2022-11-20T09:28:31;5.10;99.90
28773;DHT22;15925;51.222;5.678;2022-11-20T09:30:58;5.10;99.90
28773;DHT22;15925;51.222;5.678;2022-11-20T09:33:23;5.10;99.90
28773;DHT22;15925;51.222;5.678;2022-11-20T09:35:49;5.10;99.90
28773;DHT22;15925;51.222;5.678;2022-11-20T09:38:15;5.20;99.90
28773;DHT22;15925;51.222;5.678;2022-11-20T09:40:45;5.20;99.90
28773;DHT22;15925;51.222;5.678;2022-11-20T09:43:24;5.30;99.90
28773;DHT22;15925;51.222;5.678;2022-11-20T09:46:07;5.20;99.90
28773;DHT22;15925;51.222;5.678;2022-11-20T09:48:48;5.30;99.90
28773;DHT22;15925;51.222;5.678;2022-11-20T09:54:17;5.30;99.90
28773;DHT22;15925;51.222;5.678;2022-11-20T09:56:48;5.30;99.90
28773;DHT22;15925;51.222;5.678;2022-11-20T10:02:20;5.40;99.90
28773;DHT22;15925;51.222;5.678;2022-11-20T10:05:09;5.40;99.90
28773;DHT22;15925;51.222;5.678;2022-11-20T10:07:52;5.50;99.90
28773;DHT22;15925;51.222;5.678;2022-11-20T10:10:33;5.50;99.90
28773;DHT22;15925;51.222;5.678;2022-11-20T10:15:40;5.50;99.90
28773;DHT22;15925;51.222;5.678;2022-11-20T10:21:23;5.60;99.90
28773;DHT22;15925;51.222;5.678;2022-11-20T10:29:42;5.60;99.90
28773;DHT22;15925;51.222;5.678;2022-11-20T10:32:19;5.60;99.90
28773;DHT22;15925;51.222;5.678;2022-11-20T10:35:05;5.70;99.90
28773;DHT22;15925;51.222;5.678;2022-11-20T10:37:35;5.70;99.90
28773;DHT22;15925;51.222;5.678;2022-11-20T10:43:02;5.70;99.90
28773;DHT22;15925;51.222;5.678;2022-11-20T10:45:49;5.80;99.90
28773;DHT22;15925;51.222;5.678;2022-11-20T10:48:25;5.80;99.90
28773;DHT22;15925;51.222;5.678;2022-11-20T10:51:18;5.80;99.90
28773;DHT22;15925;51.222;5.678;2022-11-20T10:56:46;5.90;99.90
28773;DHT22;15925;51.222;5.678;2022-11-20T10:59:26;5.80;99.90
28773;DHT22;15925;51.222;5.678;2022-11-20T11:01:53;5.90;99.90
28773;DHT22;15925;51.222;5.678;2022-11-20T11:07:06;5.90;99.90
28773;DHT22;15925;51.222;5.678;2022-11-20T11:09:38;5.90;99.90
28773;DHT22;15925;51.222;5.678;2022-11-20T11:12:09;5.90;99.90
28773;DHT22;15925;51.222;5.678;2022-11-20T11:14:49;6.00;99.90
28773;DHT22;15925;51.222;5.678;2022-11-20T11:17:27;6.00;99.90
28773;DHT22;15925;51.222;5.678;2022-11-20T11:20:30;6.00;99.90
28773;DHT22;15925;51.222;5.678;2022-11-20T11:22:55;6.00;99.90
28773;DHT22;15925;51.222;5.678;2022-11-20T11:25:30;6.10;99.90
28773;DHT22;15925;51.222;5.678;2022-11-20T11:27:58;6.10;99.90
28773;DHT22;15925;51.222;5.678;2022-11-20T11:30:26;6.20;99.90
28773;DHT22;15925;51.222;5.678;2022-11-20T11:33:04;6.20;99.90
28773;DHT22;15925;51.222;5.678;2022-11-20T11:35:31;6.20;99.90
28773;DHT22;15925;51.222;5.678;2022-11-20T11:38:05;6.20;99.90
28773;DHT22;15925;51.222;5.678;2022-11-20T11:40:35;6.30;99.90
28773;DHT22;15925;51.222;5.678;2022-11-20T11:43:15;6.30;99.90
28773;DHT22;15925;51.222;5.678;2022-11-20T11:46:01;6.40;99.90
28773;DHT22;15925;51.222;5.678;2022-11-20T11:48:27;6.40;99.90
28773;DHT22;15925;51.222;5.678;2022-11-20T11:50:53;6.40;99.90
28773;DHT22;15925;51.222;5.678;2022-11-20T11:53:23;6.40;99.90
28773;DHT22;15925;51.222;5.678;2022-11-20T11:56:08;6.40;99.90
28773;DHT22;15925;51.222;5.678;2022-11-20T11:58:53;6.40;99.90
28773;DHT22;15925;51.222;5.678;2022-11-20T12:01:47;6.40;99.90
28773;DHT22;15925;51.222;5.678;2022-11-20T12:04:25;6.50;99.90
28773;DHT22;15925;51.222;5.678;2022-11-20T12:07:15;6.50;99.90
28773;DHT22;15925;51.222;5.678;2022-11-20T12:09:50;6.60;99.90
28773;DHT22;15925;51.222;5.678;2022-11-20T12:12:21;6.60;99.90
28773;DHT22;15925;51.222;5.678;2022-11-20T12:14:51;6.60;99.90
28773;DHT22;15925;51.222;5.678;2022-11-20T12:17:18;6.60;99.90
28773;DHT22;15925;51.222;5.678;2022-11-20T12:19:44;6.70;99.90
28773;DHT22;15925;51.222;5.678;2022-11-20T12:22:26;6.70;99.90
28773;DHT22;15925;51.222;5.678;2022-11-20T12:30:18;6.80;99.90
28773;DHT22;15925;51.222;5.678;2022-11-20T12:41:27;6.90;99.90
28773;DHT22;15925;51.222;5.678;2022-11-20T12:47:33;7.00;99.90
28773;DHT22;15925;51.222;5.678;2022-11-20T12:50:28;7.10;99.90
28773;DHT22;15925;51.222;5.678;2022-11-20T12:53:09;7.10;99.90
28773;DHT22;15925;51.222;5.678;2022-11-20T12:55:53;7.20;99.90
28773;DHT22;15925;51.222;5.678;2022-11-20T13:01:34;7.20;99.90
28773;DHT22;15925;51.222;5.678;2022-11-20T13:06:56;7.30;99.90
28773;DHT22;15925;51.222;5.678;2022-11-20T13:09:23;7.30;99.90
28773;DHT22;15925;51.222;5.678;2022-11-20T13:19:33;7.50;99.90
28773;DHT22;15925;51.222;5.678;2022-11-20T13:21:59;7.50;99.90
28773;DHT22;15925;51.222;5.678;2022-11-20T13:24:30;7.50;99.90
28773;DHT22;15925;51.222;5.678;2022-11-20T13:29:28;7.60;99.90
28773;DHT22;15925;51.222;5.678;2022-11-20T13:34:39;7.60;99.90
28773;DHT22;15925;51.222;5.678;2022-11-20T13:37:05;7.70;99.90
28773;DHT22;15925;51.222;5.678;2022-11-20T13:39:33;7.70;99.90
28773;DHT22;15925;51.222;5.678;2022-11-20T13:44:44;7.80;99.90
28773;DHT22;15925;51.222;5.678;2022-11-20T13:47:28;7.80;99.90
28773;DHT22;15925;51.222;5.678;2022-11-20T13:49:57;7.80;99.90
28773;DHT22;15925;51.222;5.678;2022-11-20T13:53:09;7.80;99.90
28773;DHT22;15925;51.222;5.678;2022-11-20T14:01:16;7.80;99.90
28773;DHT22;15925;51.222;5.678;2022-11-20T14:03:43;7.90;99.90
28773;DHT22;15925;51.222;5.678;2022-11-20T14:06:24;7.90;99.90
28773;DHT22;15925;51.222;5.678;2022-11-20T14:08:51;7.90;99.90
28773;DHT22;15925;51.222;5.678;2022-11-20T14:11:19;7.90;99.90
28773;DHT22;15925;51.222;5.678;2022-11-20T14:16:32;7.90;99.90
28773;DHT22;15925;51.222;5.678;2022-11-20T14:21:48;7.90;99.90
28773;DHT22;15925;51.222;5.678;2022-11-20T14:24:20;7.90;99.90
28773;DHT22;15925;51.222;5.678;2022-11-20T14:26:46;7.90;99.90
28773;DHT22;15925;51.222;5.678;2022-11-20T14:29:27;7.90;99.90
28773;DHT22;15925;51.222;5.678;2022-11-20T14:31:54;7.90;99.90
28773;DHT22;15925;51.222;5.678;2022-11-20T14:34:32;7.90;99.90
28773;DHT22;15925;51.222;5.678;2022-11-20T14:37:01;7.90;99.90
28773;DHT22;15925;51.222;5.678;2022-11-20T14:39:35;7.90;99.90
28773;DHT22;15925;51.222;5.678;2022-11-20T14:42:01;7.90;99.90
28773;DHT22;15925;51.222;5.678;2022-11-20T14:44:32;7.90;99.90
28773;DHT22;15925;51.222;5.678;2022-11-20T14:47:00;8.00;99.90
28773;DHT22;15925;51.222;5.678;2022-11-20T14:49:29;8.00;99.90
28773;DHT22;15925;51.222;5.678;2022-11-20T14:52:01;8.00;99.90
28773;DHT22;15925;51.222;5.678;2022-11-20T14:54:28;8.00;99.90
28773;DHT22;15925;51.222;5.678;2022-11-20T14:56:56;8.00;99.90
28773;DHT22;15925;51.222;5.678;2022-11-20T14:59:23;8.10;99.90
28773;DHT22;15925;51.222;5.678;2022-11-20T15:02:10;8.10;99.90
28773;DHT22;15925;51.222;5.678;2022-11-20T15:04:58;8.10;99.90
28773;DHT22;15925;51.222;5.678;2022-11-20T15:07:31;8.20;99.90
28773;DHT22;15925;51.222;5.678;2022-11-20T15:10:24;8.20;99.90
28773;DHT22;15925;51.222;5.678;2022-11-20T15:13:14;8.20;99.90
28773;DHT22;15925;51.222;5.678;2022-11-20T15:15:48;8.10;99.90
28773;DHT22;15925;51.222;5.678;2022-11-20T15:18:22;8.20;99.90
28773;DHT22;15925;51.222;5.678;2022-11-20T15:20:49;8.20;99.90
28773;DHT22;15925;51.222;5.678;2022-11-20T15:23:16;8.20;99.90
28773;DHT22;15925;51.222;5.678;2022-11-20T15:25:47;8.20;99.90
28773;DHT22;15925;51.222;5.678;2022-11-20T15:28:37;8.10;99.90
28773;DHT22;15925;51.222;5.678;2022-11-20T15:31:05;8.10;99.90
28773;DHT22;15925;51.222;5.678;2022-11-20T15:33:32;8.10;99.90
28773;DHT22;15925;51.222;5.678;2022-11-20T15:35:59;8.10;99.90
28773;DHT22;15925;51.222;5.678;2022-11-20T15:38:25;8.10;99.90
28773;DHT22;15925;51.222;5.678;2022-11-20T15:40:51;8.10;99.90
28773;DHT22;15925;51.222;5.678;2022-11-20T15:43:17;8.10;99.90
28773;DHT22;15925;51.222;5.678;2022-11-20T15:48:41;8.00;99.90
28773;DHT22;15925;51.222;5.678;2022-11-20T15:53:40;8.00;99.90
28773;DHT22;15925;51.222;5.678;2022-11-20T15:56:11;8.10;99.90
28773;DHT22;15925;51.222;5.678;2022-11-20T15:58:38;8.10;99.90
28773;DHT22;15925;51.222;5.678;2022-11-20T16:01:04;8.10;99.90
28773;DHT22;15925;51.222;5.678;2022-11-20T16:03:29;8.10;99.90
28773;DHT22;15925;51.222;5.678;2022-11-20T16:05:55;8.10;99.90
28773;DHT22;15925;51.222;5.678;2022-11-20T16:08:21;8.10;99.90
28773;DHT22;15925;51.222;5.678;2022-11-20T16:10:46;8.00;99.90
28773;DHT22;15925;51.222;5.678;2022-11-20T16:13:17;8.00;99.90
28773;DHT22;15925;51.222;5.678;2022-11-20T16:16:05;8.00;99.90
28773;DHT22;15925;51.222;5.678;2022-11-20T16:18:32;8.10;99.90
28773;DHT22;15925;51.222;5.678;2022-11-20T16:21:00;8.00;99.90
28773;DHT22;15925;51.222;5.678;2022-11-20T16:23:26;8.10;99.90
28773;DHT22;15925;51.222;5.678;2022-11-20T16:25:52;8.00;99.90
28773;DHT22;15925;51.222;5.678;2022-11-20T16:28:18;8.10;99.90
28773;DHT22;15925;51.222;5.678;2022-11-20T16:30:45;8.10;99.90
28773;DHT22;15925;51.222;5.678;2022-11-20T16:33:13;8.00;99.90
28773;DHT22;15925;51.222;5.678;2022-11-20T16:35:39;8.10;99.90
28773;DHT22;15925;51.222;5.678;2022-11-20T16:38:04;8.10;99.90
28773;DHT22;15925;51.222;5.678;2022-11-20T16:40:30;8.10;99.90
28773;DHT22;15925;51.222;5.678;2022-11-20T16:42:56;8.10;99.90
28773;DHT22;15925;51.222;5.678;2022-11-20T16:45:22;8.10;99.90
28773;DHT22;15925;51.222;5.678;2022-11-20T16:47:48;8.20;99.90
28773;DHT22;15925;51.222;5.678;2022-11-20T16:50:14;8.20;99.90
28773;DHT22;15925;51.222;5.678;2022-11-20T16:52:40;8.20;99.90
28773;DHT22;15925;51.222;5.678;2022-11-20T16:55:06;8.20;99.90
28773;DHT22;15925;51.222;5.678;2022-11-20T16:57:32;8.20;99.90
28773;DHT22;15925;51.222;5.678;2022-11-20T16:59:58;8.20;99.90
28773;DHT22;15925;51.222;5.678;2022-11-20T17:02:24;8.20;99.90
28773;DHT22;15925;51.222;5.678;2022-11-20T17:04:51;8.20;99.90
28773;DHT22;15925;51.222;5.678;2022-11-20T17:07:17;8.20;99.90
28773;DHT22;15925;51.222;5.678;2022-11-20T17:09:43;8.20;99.90
28773;DHT22;15925;51.222;5.678;2022-11-20T17:12:09;8.20;99.90
28773;DHT22;15925;51.222;5.678;2022-11-20T17:14:34;8.30;99.90
28773;DHT22;15925;51.222;5.678;2022-11-20T17:17:01;8.30;99.90
28773;DHT22;15925;51.222;5.678;2022-11-20T17:19:26;8.30;99.90
28773;DHT22;15925;51.222;5.678;2022-11-20T17:21:52;8.30;99.90